Time;durP1;ratioP1;P1;durP2;ratioP2;P2;SDS_P1;SDS_P2;PMS_P1;PMS_P2;Temp;Humidity;BMP_temperature;BMP_pressure;BME280_temperature;BME280_humidity;BME280_pressure;Samples;Min_cycle;Max_cycle;Signal;HPM_P1;HPM_P2
2024/01/16 00:01:00;;;;;;;25.80;3.90;;;0.60;98.10;;;;;;5013343;28;20488;-65
2024/01/16 00:03:29;;;;;;;7.40;4.90;;;0.60;98.10;;;;;;4999462;28;20485;-65
2024/01/16 00:05:56;;;;;;;10.33;4.93;;;0.50;98.20;;;;;;5008345;28;20555;-64
2024/01/16 00:08:23;;;;;;;17.10;5.80;;;0.50;98.00;;;;;;5012830;28;20673;-64
2024/01/16 00:10:49;;;;;;;39.20;6.93;;;0.50;98.10;;;;;;4980477;28;20478;-65
2024/01/16 00:13:16;;;;;;;9.40;6.20;;;0.70;98.20;;;;;;5005816;28;20485;-65
2024/01/16 00:15:43;;;;;;;10.87;6.40;;;0.60;98.00;;;;;;4999585;28;20550;-64
2024/01/16 00:18:10;;;;;;;17.27;7.03;;;0.50;97.60;;;;;;5012953;28;20473;-65
2024/01/16 00:20:39;;;;;;;8.43;6.30;;;0.50;97.80;;;;;;5015842;28;20484;-64
2024/01/16 00:23:05;;;;;;;9.37;3.60;;;0.30;98.00;;;;;;5013221;28;20919;-64
2024/01/16 00:25:32;;;;;;;6.90;4.80;;;0.30;98.20;;;;;;5010210;28;20472;-64
2024/01/16 00:27:59;;;;;;;9.50;5.80;;;0.30;98.00;;;;;;5004995;28;20965;-64
2024/01/16 00:30:26;;;;;;;13.33;8.47;;;0.20;98.10;;;;;;4993706;28;22301;-64
2024/01/16 00:32:53;;;;;;;22.90;8.67;;;0.10;98.20;;;;;;4992284;28;20855;-64
2024/01/16 00:35:20;;;;;;;19.40;8.00;;;0.10;98.30;;;;;;5013802;28;20543;-63
2024/01/16 00:37:48;;;;;;;15.33;9.47;;;0.10;98.40;;;;;;5013662;28;20476;-64
2024/01/16 00:40:15;;;;;;;10.60;6.83;;;0.10;98.50;;;;;;5021518;28;21538;-64
2024/01/16 00:42:42;;;;;;;14.80;4.07;;;0.10;98.60;;;;;;5014641;28;20477;-64
2024/01/16 00:45:09;;;;;;;7.33;4.50;;;0.10;98.70;;;;;;4998586;28;20492;-65
2024/01/16 00:47:36;;;;;;;9.23;6.70;;;0.10;98.80;;;;;;4989522;28;20496;-65
2024/01/16 00:50:02;;;;;;;14.60;6.00;;;0.10;98.80;;;;;;5024590;28;20542;-64
2024/01/16 00:52:29;;;;;;;11.60;5.67;;;0.20;98.90;;;;;;5034323;28;20475;-64
2024/01/16 00:54:57;;;;;;;9.20;4.70;;;0.20;99.00;;;;;;4996016;28;20481;-64
2024/01/16 00:57:24;;;;;;;7.40;4.33;;;0.20;99.00;;;;;;5021930;28;20496;-64
2024/01/16 00:59:51;;;;;;;6.77;4.07;;;0.20;99.00;;;;;;4996783;28;20517;-64
2024/01/16 01:02:18;;;;;;;13.73;6.70;;;0.30;99.00;;;;;;5027910;28;20848;-64
2024/01/16 01:04:45;;;;;;;7.13;4.10;;;0.40;98.90;;;;;;5018997;28;20495;-64
2024/01/16 01:07:14;;;;;;;11.13;4.97;;;0.40;99.00;;;;;;5011023;28;20488;-64
2024/01/16 01:09:42;;;;;;;26.53;5.90;;;0.50;98.90;;;;;;5019252;28;20484;-64
2024/01/16 01:12:10;;;;;;;10.30;5.67;;;0.40;98.80;;;;;;5028109;28;21052;-64
2024/01/16 01:14:37;;;;;;;12.80;4.93;;;0.50;99.00;;;;;;5012903;28;20476;-64
2024/01/16 01:17:04;;;;;;;8.80;5.83;;;0.50;98.80;;;;;;5019390;28;20480;-63
2024/01/16 01:19:31;;;;;;;7.77;4.57;;;0.50;98.90;;;;;;5027843;28;20477;-64
2024/01/16 01:21:58;;;;;;;9.30;5.67;;;0.50;98.80;;;;;;5011546;28;20472;-63
2024/01/16 01:24:25;;;;;;;19.10;5.60;;;0.50;98.60;;;;;;5019153;28;20924;-64
2024/01/16 01:26:52;;;;;;;5.77;3.70;;;0.60;98.60;;;;;;5005142;28;20537;-64
2024/01/16 01:29:20;;;;;;;10.97;5.90;;;0.60;98.50;;;;;;4995314;28;20485;-64
2024/01/16 01:31:48;;;;;;;9.83;3.90;;;0.60;98.40;;;;;;5025747;28;20507;-64
2024/01/16 01:34:15;;;;;;;17.33;5.93;;;0.50;98.30;;;;;;5025979;28;20895;-64
2024/01/16 01:36:43;;;;;;;14.10;7.10;;;0.50;98.40;;;;;;5018795;28;20546;-64
2024/01/16 01:39:10;;;;;;;5.70;4.87;;;0.50;98.20;;;;;;5033262;28;20487;-64
2024/01/16 01:41:37;;;;;;;13.67;6.90;;;0.40;98.20;;;;;;5025814;28;20476;-64
2024/01/16 01:44:05;;;;;;;56.20;8.43;;;;;;;;;;4998050;28;20485;-64
2024/01/16 01:46:35;;;;;;;13.80;6.87;;;0.30;98.30;;;;;;5016014;28;21021;-64
2024/01/16 01:49:04;;;;;;;10.10;6.33;;;0.20;98.10;;;;;;5013763;28;20484;-64
2024/01/16 01:51:31;;;;;;;10.37;7.33;;;0.00;98.30;;;;;;5029638;28;20797;-64
2024/01/16 01:53:59;;;;;;;10.47;7.20;;;;;;;;;;5032203;28;20487;-64
2024/01/16 01:56:26;;;;;;;11.67;6.03;;;-0.10;98.60;;;;;;5025300;28;20485;-64
2024/01/16 01:58:55;;;;;;;21.97;7.50;;;-0.10;98.50;;;;;;4985144;28;20488;-64
2024/01/16 02:01:23;;;;;;;10.90;7.10;;;-0.20;98.70;;;;;;5022508;28;20473;-64
2024/01/16 02:03:56;;;;;;;11.20;7.30;;;-0.20;99.00;;;;;;5019599;28;20738;-64
2024/01/16 02:06:23;;;;;;;10.20;6.70;;;-0.20;99.20;;;;;;5031536;28;20496;-64
2024/01/16 02:08:50;;;;;;;8.77;3.70;;;-0.30;99.40;;;;;;5023335;28;20491;-64
2024/01/16 02:11:17;;;;;;;8.67;5.87;;;-0.20;99.50;;;;;;5030215;28;20484;-64
2024/01/16 02:13:44;;;;;;;10.00;3.93;;;-0.10;99.50;;;;;;5002634;28;20897;-64
2024/01/16 02:16:19;;;;;;;5.93;3.73;;;-0.10;99.60;;;;;;5018186;28;20554;-64
2024/01/16 02:18:47;;;;;;;30.20;6.57;;;-0.10;99.60;;;;;;5015970;28;20472;-64
2024/01/16 02:21:18;;;;;;;19.90;9.60;;;-0.10;99.60;;;;;;5026501;28;20533;-64
2024/01/16 02:23:47;;;;;;;13.00;5.53;;;-0.10;99.60;;;;;;5020095;28;20473;-64
2024/01/16 02:26:15;;;;;;;27.90;10.07;;;-0.10;99.50;;;;;;5023561;28;20492;-64
2024/01/16 02:28:42;;;;;;;16.10;6.17;;;-0.10;99.50;;;;;;5034062;28;20484;-64
2024/01/16 02:31:09;;;;;;;5.00;2.93;;;0.00;99.50;;;;;;5017315;28;20479;-64
2024/01/16 02:33:36;;;;;;;10.30;7.13;;;0.10;99.60;;;;;;5026200;28;20533;-64
2024/01/16 02:36:04;;;;;;;7.23;5.00;;;0.10;99.50;;;;;;5022077;28;20503;-64
2024/01/16 02:38:30;;;;;;;15.37;6.93;;;0.10;99.50;;;;;;5021431;28;20556;-64
2024/01/16 02:40:59;;;;;;;7.47;5.77;;;0.10;99.60;;;;;;5001086;28;20517;-64
2024/01/16 02:43:27;;;;;;;10.97;6.00;;;0.10;99.70;;;;;;4991315;28;20480;-65
2024/01/16 02:45:54;;;;;;;11.10;6.33;;;0.10;99.60;;;;;;4977478;28;20543;-64
2024/01/16 02:48:21;;;;;;;13.20;6.30;;;0.00;99.50;;;;;;4982152;28;20490;-64
2024/01/16 02:50:48;;;;;;;18.30;7.77;;;0.00;99.50;;;;;;4997018;28;20484;-64
2024/01/16 02:53:15;;;;;;;15.83;6.67;;;0.10;99.50;;;;;;4999528;28;20476;-64
2024/01/16 02:55:42;;;;;;;12.83;5.70;;;0.00;99.50;;;;;;4995848;28;20480;-64
2024/01/16 02:58:10;;;;;;;13.57;6.03;;;0.00;99.40;;;;;;4965021;28;20554;-64
2024/01/16 03:00:38;;;;;;;10.37;6.83;;;-0.10;99.60;;;;;;5014526;28;20531;-64
2024/01/16 03:03:05;;;;;;;19.33;6.27;;;-0.10;99.50;;;;;;5006349;28;20481;-64
2024/01/16 03:05:32;;;;;;;10.50;5.93;;;-0.10;99.50;;;;;;4968144;28;20883;-64
2024/01/16 03:07:59;;;;;;;9.13;5.17;;;0.00;99.50;;;;;;4980515;28;20547;-64
2024/01/16 03:10:26;;;;;;;6.10;4.83;;;0.00;99.50;;;;;;5008787;28;20479;-64
2024/01/16 03:12:53;;;;;;;11.10;5.70;;;0.10;99.50;;;;;;5010082;28;20491;-64
2024/01/16 03:15:21;;;;;;;10.70;6.20;;;0.10;99.10;;;;;;5002042;28;20887;-64
2024/01/16 03:17:49;;;;;;;7.67;4.57;;;0.20;99.10;;;;;;4979050;28;20524;-64
2024/01/16 03:20:16;;;;;;;7.80;4.70;;;0.10;98.70;;;;;;4990504;28;20551;-64
2024/01/16 03:22:44;;;;;;;8.20;4.67;;;0.10;98.70;;;;;;4989787;28;21164;-65
2024/01/16 03:25:12;;;;;;;8.00;4.90;;;0.20;98.80;;;;;;4993825;28;20576;-64
2024/01/16 03:27:39;;;;;;;16.97;7.63;;;0.20;98.80;;;;;;4995549;28;20867;-64
2024/01/16 03:30:08;;;;;;;11.33;5.83;;;0.20;98.80;;;;;;5027599;28;20503;-64
2024/01/16 03:32:36;;;;;;;14.33;5.37;;;0.20;98.70;;;;;;5015206;28;20484;-64
2024/01/16 03:35:03;;;;;;;42.90;6.73;;;0.30;98.70;;;;;;5006784;28;20829;-64
2024/01/16 03:37:30;;;;;;;19.60;4.70;;;0.20;98.50;;;;;;4993615;28;20495;-64
2024/01/16 03:39:57;;;;;;;12.17;5.77;;;0.10;98.10;;;;;;5028015;28;21066;-64
2024/01/16 03:42:24;;;;;;;12.83;5.47;;;0.10;98.30;;;;;;4994696;28;21161;-65
2024/01/16 03:44:51;;;;;;;7.60;5.73;;;0.00;98.20;;;;;;5035965;28;20506;-65
2024/01/16 03:47:18;;;;;;;10.43;5.77;;;0.00;98.30;;;;;;4996292;28;20481;-64
2024/01/16 03:49:47;;;;;;;8.43;5.90;;;-0.10;97.70;;;;;;4972812;28;20606;-64
2024/01/16 03:52:14;;;;;;;10.33;6.80;;;-0.20;96.70;;;;;;4958858;28;20496;-64
2024/01/16 03:54:41;;;;;;;11.33;5.60;;;-0.60;96.20;;;;;;5002992;28;20477;-64
2024/01/16 03:57:08;;;;;;;6.83;5.00;;;-1.00;96.40;;;;;;4998886;28;20890;-64
2024/01/16 03:59:37;;;;;;;7.47;5.47;;;-1.20;97.40;;;;;;4984424;28;20489;-65
2024/01/16 04:02:05;;;;;;;39.57;7.93;;;-1.50;97.20;;;;;;4981822;28;20541;-65
2024/01/16 04:04:31;;;;;;;9.93;5.80;;;-1.50;97.30;;;;;;5014218;28;20520;-64
2024/01/16 04:07:00;;;;;;;11.50;7.00;;;-1.60;97.90;;;;;;4993974;28;20535;-64
2024/01/16 04:09:27;;;;;;;10.33;5.73;;;-1.80;97.60;;;;;;4997966;28;20472;-64
2024/01/16 04:11:53;;;;;;;16.37;6.20;;;-1.90;97.70;;;;;;5000809;28;20551;-65
2024/01/16 04:14:21;;;;;;;13.60;7.60;;;-2.10;97.60;;;;;;5003833;28;20485;-65
2024/01/16 04:16:48;;;;;;;13.77;7.50;;;-2.30;98.60;;;;;;5005477;28;20593;-64
2024/01/16 04:19:15;;;;;;;13.40;6.13;;;-2.30;99.30;;;;;;5018294;28;20848;-65
2024/01/16 04:21:42;;;;;;;14.60;6.57;;;-2.30;99.10;;;;;;5013579;28;20553;-65
2024/01/16 04:24:10;;;;;;;14.50;6.53;;;-2.30;97.90;;;;;;5033511;28;20491;-65
2024/01/16 04:26:38;;;;;;;22.33;8.50;;;-2.40;97.90;;;;;;5019760;28;20476;-64
2024/01/16 04:29:05;;;;;;;31.93;11.37;;;;;;;;;;4981330;28;20835;-64
2024/01/16 04:31:34;;;;;;;13.70;7.30;;;-2.60;98.40;;;;;;5019567;28;20476;-64
2024/01/16 04:34:01;;;;;;;15.33;7.53;;;-2.80;97.90;;;;;;4973281;28;20542;-64
2024/01/16 04:36:28;;;;;;;30.03;9.60;;;-2.90;98.20;;;;;;4997091;28;20480;-64
2024/01/16 04:38:55;;;;;;;17.40;9.23;;;-3.00;98.50;;;;;;5004464;28;20487;-64
2024/01/16 04:41:23;;;;;;;22.70;10.20;;;-3.20;98.70;;;;;;5004360;28;20478;-64
2024/01/16 04:43:50;;;;;;;29.27;10.70;;;-3.20;99.20;;;;;;4970618;28;20477;-64
2024/01/16 04:46:17;;;;;;;26.23;11.93;;;-3.20;99.30;;;;;;5000392;28;20488;-64
2024/01/16 04:48:44;;;;;;;19.13;9.87;;;-3.30;98.90;;;;;;4991847;28;20902;-64
2024/01/16 04:51:11;;;;;;;12.40;6.60;;;-3.30;98.80;;;;;;4998578;28;20526;-64
2024/01/16 04:53:38;;;;;;;17.37;7.83;;;-3.30;98.60;;;;;;5017667;28;20460;-64
2024/01/16 04:56:06;;;;;;;16.23;7.30;;;-3.40;98.20;;;;;;5006196;28;20546;-64
2024/01/16 04:58:34;;;;;;;14.90;7.57;;;-3.50;98.10;;;;;;5006730;28;21235;-64
2024/01/16 05:01:01;;;;;;;17.57;8.43;;;-3.40;98.50;;;;;;4988912;28;20535;-65
2024/01/16 05:03:28;;;;;;;16.27;8.13;;;-3.50;98.10;;;;;;5000433;28;20550;-65
2024/01/16 05:05:56;;;;;;;20.50;8.47;;;-3.50;98.00;;;;;;5014661;28;20593;-64
2024/01/16 05:08:24;;;;;;;39.97;10.70;;;-3.50;98.60;;;;;;4994193;28;20556;-65
2024/01/16 05:10:51;;;;;;;20.47;9.07;;;-3.50;99.20;;;;;;4984312;28;20491;-65
2024/01/16 05:13:17;;;;;;;18.50;10.23;;;-3.50;99.90;;;;;;4998566;28;20494;-64
2024/01/16 05:15:46;;;;;;;16.33;8.00;;;-3.50;99.00;;;;;;5003721;28;20877;-64
2024/01/16 05:18:13;;;;;;;26.97;6.87;;;-3.50;98.10;;;;;;4988574;28;20929;-64
2024/01/16 05:20:40;;;;;;;26.67;9.70;;;-3.60;97.50;;;;;;4987386;28;20544;-64
2024/01/16 05:23:07;;;;;;;19.97;8.50;;;-3.70;97.70;;;;;;5007538;28;20845;-63
2024/01/16 05:25:34;;;;;;;11.73;7.10;;;;;;;;;;4983408;28;20477;-64
2024/01/16 05:28:01;;;;;;;15.80;7.90;;;-3.70;98.10;;;;;;5002125;28;20911;-64
2024/01/16 05:30:28;;;;;;;14.67;8.70;;;-3.60;98.40;;;;;;5022361;28;20550;-64
2024/01/16 05:33:00;;;;;;;10.63;7.57;;;-3.30;98.10;;;;;;4988479;28;20506;-64
2024/01/16 05:35:27;;;;;;;19.83;11.40;;;-3.30;97.80;;;;;;5006558;28;20477;-65
2024/01/16 05:37:55;;;;;;;23.43;9.50;;;-3.50;97.10;;;;;;5008028;28;20489;-64
2024/01/16 05:40:22;;;;;;;21.40;10.67;;;-3.60;97.80;;;;;;5005800;28;20488;-64
2024/01/16 05:42:49;;;;;;;21.93;9.93;;;-3.80;97.50;;;;;;5028805;28;20545;-64
2024/01/16 05:45:16;;;;;;;43.27;9.50;;;-3.80;98.20;;;;;;5027324;28;20484;-64
2024/01/16 05:47:43;;;;;;;15.77;8.67;;;-3.80;98.90;;;;;;4977912;28;20497;-63
2024/01/16 05:50:12;;;;;;;23.13;12.90;;;-3.80;99.50;;;;;;5024366;28;20729;-63
2024/01/16 05:52:40;;;;;;;25.13;12.70;;;-3.80;99.90;;;;;;4966539;28;20481;-64
2024/01/16 05:55:08;;;;;;;20.07;10.20;;;-3.70;99.90;;;;;;5024183;28;20566;-64
2024/01/16 05:57:35;;;;;;;16.83;10.03;;;-3.70;99.90;;;;;;4989948;28;20503;-64
2024/01/16 06:00:03;;;;;;;25.87;14.80;;;-3.50;99.90;;;;;;4986689;28;20475;-65
2024/01/16 06:02:30;;;;;;;25.90;12.97;;;-3.50;99.90;;;;;;5004723;28;20489;-64
2024/01/16 06:04:57;;;;;;;30.50;13.07;;;-3.40;99.90;;;;;;5028461;28;20601;-64
2024/01/16 06:07:25;;;;;;;27.40;12.60;;;-3.40;99.90;;;;;;5021470;28;20526;-65
2024/01/16 06:09:52;;;;;;;29.77;12.03;;;-3.40;99.90;;;;;;5030516;28;20482;-63
2024/01/16 06:12:19;;;;;;;31.53;13.23;;;-3.40;99.90;;;;;;5026442;28;20487;-64
2024/01/16 06:14:47;;;;;;;33.87;12.43;;;-3.30;99.90;;;;;;4994522;28;20476;-63
2024/01/16 06:17:14;;;;;;;52.37;14.27;;;-3.30;99.90;;;;;;5019735;28;20480;-64
2024/01/16 06:19:40;;;;;;;30.00;12.23;;;-3.30;99.90;;;;;;5021401;28;21046;-64
2024/01/16 06:22:08;;;;;;;25.27;12.27;;;-3.30;99.90;;;;;;5025058;28;20476;-63
2024/01/16 06:24:37;;;;;;;34.53;14.07;;;-3.30;99.90;;;;;;5028687;28;20511;-64
2024/01/16 06:27:06;;;;;;;23.97;12.03;;;-3.30;99.90;;;;;;5027120;28;20488;-64
2024/01/16 06:29:32;;;;;;;40.13;15.43;;;-3.20;99.90;;;;;;5023046;28;20857;-64
2024/01/16 06:32:00;;;;;;;23.77;15.10;;;-3.20;99.90;;;;;;5025865;28;20623;-64
2024/01/16 06:34:27;;;;;;;39.53;14.90;;;-3.20;99.90;;;;;;5027713;28;20499;-64
2024/01/16 06:36:54;;;;;;;30.97;13.77;;;-3.20;99.90;;;;;;5024200;28;20485;-64
2024/01/16 06:39:21;;;;;;;29.53;13.63;;;-3.20;99.90;;;;;;5004464;28;20508;-64
2024/01/16 06:41:50;;;;;;;32.00;15.30;;;-3.10;99.90;;;;;;5011236;28;21686;-64
2024/01/16 06:44:17;;;;;;;23.63;12.83;;;-3.10;99.90;;;;;;5025760;28;20543;-64
2024/01/16 06:46:44;;;;;;;30.27;13.20;;;-3.10;99.90;;;;;;5021264;28;20812;-64
2024/01/16 06:49:11;;;;;;;28.27;12.90;;;-3.00;99.90;;;;;;5014558;28;20723;-64
2024/01/16 06:51:38;;;;;;;29.57;13.03;;;-3.00;99.90;;;;;;5005394;28;20475;-64
2024/01/16 06:54:05;;;;;;;38.37;14.00;;;-3.00;99.90;;;;;;5034495;28;20488;-65
2024/01/16 06:56:32;;;;;;;28.13;12.03;;;-2.90;99.90;;;;;;4995933;28;20485;-65
2024/01/16 06:59:00;;;;;;;27.73;12.57;;;-2.80;99.90;;;;;;5029356;28;20572;-65
2024/01/16 07:01:27;;;;;;;28.23;11.60;;;;;;;;;;5027413;28;20484;-65
2024/01/16 07:03:54;;;;;;;31.03;11.60;;;-2.60;99.90;;;;;;5026370;28;20559;-65
2024/01/16 07:06:21;;;;;;;31.20;14.50;;;-2.50;99.90;;;;;;5014951;28;20569;-64
2024/01/16 07:08:48;;;;;;;26.33;12.70;;;-2.40;99.90;;;;;;5005241;28;20526;-65
2024/01/16 07:11:15;;;;;;;19.33;9.20;;;-2.40;99.70;;;;;;5024465;28;20968;-65
2024/01/16 07:13:42;;;;;;;18.17;9.10;;;-2.50;99.50;;;;;;5011258;28;20485;-65
2024/01/16 07:16:13;;;;;;;20.70;10.20;;;-2.40;99.90;;;;;;5018045;28;20504;-65
2024/01/16 07:18:40;;;;;;;25.10;14.27;;;-2.30;99.80;;;;;;5029713;28;20562;-65
2024/01/16 07:21:17;;;;;;;22.97;13.73;;;-2.40;99.70;;;;;;5019535;28;20489;-65
2024/01/16 07:23:44;;;;;;;25.47;14.03;;;-2.50;99.80;;;;;;5009917;28;20979;-65
2024/01/16 07:26:11;;;;;;;44.77;17.50;;;-2.60;99.90;;;;;;5000664;28;20552;-65
2024/01/16 07:28:38;;;;;;;46.37;18.13;;;-2.70;99.90;;;;;;4979565;28;20497;-64
2024/01/16 07:31:05;;;;;;;31.37;17.03;;;-2.80;99.90;;;;;;5032084;28;20497;-64
2024/01/16 07:33:33;;;;;;;25.13;11.77;;;-2.90;99.90;;;;;;5026061;28;20491;-65
2024/01/16 07:36:00;;;;;;;28.47;15.27;;;-3.00;99.90;;;;;;5028378;28;20480;-64
2024/01/16 07:38:27;;;;;;;27.23;12.80;;;-2.80;99.90;;;;;;5021326;28;20516;-65
2024/01/16 07:40:56;;;;;;;18.37;11.67;;;-2.80;99.90;;;;;;5018869;28;20484;-65
2024/01/16 07:43:23;;;;;;;24.40;10.53;;;-2.80;99.90;;;;;;5015034;28;20481;-65
2024/01/16 07:45:50;;;;;;;30.50;13.57;;;-2.80;99.90;;;;;;4982446;28;20487;-65
2024/01/16 07:48:17;;;;;;;28.33;14.37;;;-2.80;99.90;;;;;;4998455;28;20546;-65
2024/01/16 07:50:46;;;;;;;26.07;11.87;;;-2.80;99.90;;;;;;5000957;28;20538;-65
2024/01/16 07:53:13;;;;;;;34.17;14.67;;;-2.70;99.90;;;;;;5002031;28;20472;-65
2024/01/16 07:55:40;;;;;;;50.23;15.70;;;;;;;;;;4999948;28;20477;-65
2024/01/16 07:58:07;;;;;;;33.57;15.67;;;-2.80;99.90;;;;;;5013879;28;20485;-66
2024/01/16 08:00:34;;;;;;;40.93;15.73;;;-2.70;99.90;;;;;;5015497;28;20523;-65
2024/01/16 08:03:00;;;;;;;42.63;15.53;;;-2.70;99.90;;;;;;5017686;28;20476;-65
2024/01/16 08:05:30;;;;;;;34.73;16.40;;;-2.70;99.90;;;;;;5001084;28;20485;-65
2024/01/16 08:07:58;;;;;;;29.90;14.93;;;-2.70;99.90;;;;;;4988265;28;20500;-65
2024/01/16 08:10:25;;;;;;;31.30;14.10;;;-2.60;99.90;;;;;;5007961;28;20512;-65
2024/01/16 08:12:52;;;;;;;34.03;15.83;;;-2.50;99.90;;;;;;5016309;28;20554;-65
2024/01/16 08:15:19;;;;;;;33.53;16.93;;;-2.50;99.90;;;;;;5011816;28;20504;-64
2024/01/16 08:17:45;;;;;;;47.03;17.20;;;-2.40;99.90;;;;;;5010324;28;20831;-65
2024/01/16 08:20:13;;;;;;;47.50;22.07;;;-2.40;99.90;;;;;;5015429;28;20565;-65
2024/01/16 08:22:40;;;;;;;30.37;13.10;;;-2.40;99.90;;;;;;5016567;28;20476;-65
2024/01/16 08:25:09;;;;;;;29.73;14.27;;;-2.30;99.90;;;;;;5016464;28;20586;-64
2024/01/16 08:27:37;;;;;;;37.33;18.03;;;-2.20;99.90;;;;;;5014294;28;20531;-64
2024/01/16 08:30:05;;;;;;;44.23;17.80;;;-2.20;99.90;;;;;;5011851;28;20519;-64
2024/01/16 08:32:32;;;;;;;26.73;12.60;;;-2.20;99.90;;;;;;5001799;28;20879;-64
2024/01/16 08:34:59;;;;;;;24.57;10.27;;;-2.10;99.90;;;;;;5014057;28;20660;-65
2024/01/16 08:37:26;;;;;;;35.80;14.33;;;-2.00;99.90;;;;;;4997622;28;20489;-64
2024/01/16 08:39:53;;;;;;;24.27;10.33;;;-2.00;99.90;;;;;;4986444;28;20525;-64
2024/01/16 08:42:21;;;;;;;8.53;5.00;;;-1.90;99.90;;;;;;4998220;28;20856;-65
2024/01/16 08:44:48;;;;;;;34.60;11.77;;;-1.70;99.90;;;;;;5015787;28;20558;-66
2024/01/16 08:47:15;;;;;;;40.97;16.63;;;-1.70;99.90;;;;;;4936704;28;20489;-64
2024/01/16 08:49:46;;;;;;;32.17;13.20;;;-1.60;99.90;;;;;;4984547;28;20487;-65
2024/01/16 08:52:13;;;;;;;44.10;15.43;;;-1.60;99.90;;;;;;4995864;28;20519;-65
2024/01/16 08:54:40;;;;;;;27.87;13.13;;;-1.60;99.90;;;;;;5008400;28;20485;-64
2024/01/16 08:57:10;;;;;;;22.97;10.77;;;-1.50;99.90;;;;;;4990576;28;20959;-64
2024/01/16 08:59:39;;;;;;;31.77;13.53;;;-1.40;99.90;;;;;;5015428;28;20475;-64
2024/01/16 09:02:06;;;;;;;25.57;13.30;;;-1.40;99.90;;;;;;4987853;28;20485;-64
2024/01/16 09:04:33;;;;;;;34.40;13.40;;;-1.30;99.90;;;;;;4989576;28;20499;-64
2024/01/16 09:07:00;;;;;;;30.00;14.33;;;-1.20;99.90;;;;;;5007366;28;20868;-64
2024/01/16 09:09:27;;;;;;;25.10;11.07;;;-1.20;99.90;;;;;;5004831;28;20492;-64
2024/01/16 09:11:54;;;;;;;39.93;16.03;;;;;;;;;;5018078;28;20535;-65
2024/01/16 09:14:21;;;;;;;36.97;14.67;;;-1.10;99.90;;;;;;5008127;28;20559;-65
2024/01/16 09:16:50;;;;;;;38.27;17.50;;;-1.10;99.90;;;;;;5014675;28;20545;-64
2024/01/16 09:19:17;;;;;;;46.40;14.50;;;-1.10;99.90;;;;;;5008462;28;20890;-65
2024/01/16 09:21:44;;;;;;;35.70;17.77;;;-1.10;99.90;;;;;;4981489;28;20534;-64
2024/01/16 09:24:12;;;;;;;35.73;17.53;;;-1.10;99.90;;;;;;4995504;28;20488;-64
2024/01/16 09:26:39;;;;;;;34.73;13.97;;;-1.00;99.80;;;;;;4936469;28;20517;-64
2024/01/16 09:29:06;;;;;;;26.77;13.97;;;-1.00;99.80;;;;;;4992381;28;20484;-64
2024/01/16 09:31:33;;;;;;;32.33;16.40;;;-0.90;99.70;;;;;;5014188;28;20473;-65
2024/01/16 09:34:01;;;;;;;29.03;11.97;;;-0.80;99.70;;;;;;5015606;28;20476;-65
2024/01/16 09:36:28;;;;;;;29.63;12.23;;;-0.70;99.70;;;;;;5009353;28;20484;-64
2024/01/16 09:38:55;;;;;;;46.90;14.40;;;;;;;;;;5011917;28;20488;-64
2024/01/16 09:41:22;;;;;;;30.93;15.10;;;-0.50;99.50;;;;;;5000131;28;20472;-64
2024/01/16 09:43:50;;;;;;;38.33;14.90;;;-0.30;99.20;;;;;;5008077;28;20581;-64
2024/01/16 09:46:18;;;;;;;25.83;12.20;;;-0.20;98.90;;;;;;4991053;28;20538;-64
2024/01/16 09:48:45;;;;;;;36.33;13.70;;;-0.10;98.60;;;;;;5007865;28;20530;-64
2024/01/16 09:51:15;;;;;;;22.53;12.00;;;0.00;98.40;;;;;;5006915;28;20983;-64
2024/01/16 09:53:42;;;;;;;39.37;11.80;;;0.10;98.20;;;;;;5001891;28;20484;-64
2024/01/16 09:56:15;;;;;;;27.90;14.93;;;0.30;98.10;;;;;;5001980;28;20586;-65
2024/01/16 09:58:43;;;;;;;32.83;14.40;;;0.40;98.00;;;;;;4989301;28;20488;-65
2024/01/16 10:01:12;;;;;;;35.03;14.67;;;0.60;98.10;;;;;;4996194;28;20489;-64
2024/01/16 10:03:39;;;;;;;30.37;13.40;;;0.70;97.80;;;;;;4994759;28;20554;-64
2024/01/16 10:06:08;;;;;;;27.53;12.90;;;0.80;97.60;;;;;;4998457;28;20536;-65
2024/01/16 10:08:36;;;;;;;21.47;11.30;;;1.00;97.00;;;;;;5015576;28;20487;-64
2024/01/16 10:11:03;;;;;;;27.83;13.10;;;1.00;97.00;;;;;;5013298;28;20944;-64
2024/01/16 10:13:30;;;;;;;55.60;17.43;;;1.20;96.80;;;;;;5001363;28;21014;-64
2024/01/16 10:15:59;;;;;;;26.73;12.30;;;1.30;96.60;;;;;;5014817;28;20480;-64
2024/01/16 10:18:27;;;;;;;30.60;12.17;;;1.40;96.50;;;;;;5013922;28;20955;-64
2024/01/16 10:20:55;;;;;;;32.77;13.87;;;1.50;96.20;;;;;;4983602;28;20845;-64
2024/01/16 10:23:25;;;;;;;27.17;13.33;;;1.40;95.90;;;;;;5011284;28;20839;-64
2024/01/16 10:26:08;;;;;;;26.30;14.50;;;1.30;95.90;;;;;;4997731;28;20480;-64
2024/01/16 10:28:35;;;;;;;22.90;12.87;;;1.20;96.00;;;;;;5000449;28;20854;-65
2024/01/16 10:31:05;;;;;;;27.00;14.73;;;1.20;96.40;;;;;;4990758;28;20868;-65
2024/01/16 10:33:32;;;;;;;21.80;12.57;;;1.20;96.10;;;;;;5006676;28;20472;-65
2024/01/16 10:36:10;;;;;;;27.17;14.50;;;1.40;96.00;;;;;;4983825;28;20481;-65
2024/01/16 10:38:39;;;;;;;26.10;13.83;;;1.40;96.10;;;;;;4981091;28;20552;-64
2024/01/16 10:41:10;;;;;;;61.70;13.73;;;1.40;96.20;;;;;;4971476;28;20563;-65
2024/01/16 10:43:37;;;;;;;32.13;14.50;;;1.60;96.30;;;;;;4986953;28;20998;-64
2024/01/16 10:46:12;;;;;;;25.70;12.20;;;1.80;96.00;;;;;;4998509;28;20516;-63
2024/01/16 10:48:41;;;;;;;28.77;13.63;;;2.20;96.20;;;;;;4982184;28;20480;-64
2024/01/16 10:51:09;;;;;;;34.30;12.80;;;2.50;96.70;;;;;;4995463;28;20514;-63
2024/01/16 10:53:38;;;;;;;25.47;14.40;;;2.60;95.30;;;;;;5012026;28;21040;-63
2024/01/16 10:56:11;;;;;;;29.30;12.43;;;2.80;95.00;;;;;;5007887;28;20484;-63
2024/01/16 10:58:41;;;;;;;25.70;12.00;;;3.00;95.40;;;;;;5016308;28;20483;-63
2024/01/16 11:01:11;;;;;;;25.60;12.33;;;3.10;94.90;;;;;;4997976;28;20500;-63
2024/01/16 11:03:44;;;;;;;26.23;12.67;;;3.40;94.70;;;;;;4966046;28;20477;-63
2024/01/16 11:06:11;;;;;;;24.10;13.60;;;3.50;94.90;;;;;;5012794;28;20534;-63
2024/01/16 11:08:38;;;;;;;34.13;13.40;;;4.00;94.80;;;;;;5008516;28;20856;-63
2024/01/16 11:11:06;;;;;;;29.30;13.70;;;4.40;95.00;;;;;;5005511;28;21373;-63
2024/01/16 11:13:36;;;;;;;21.20;12.30;;;4.70;93.60;;;;;;4994869;28;20547;-63
2024/01/16 11:16:05;;;;;;;28.40;12.20;;;4.90;92.90;;;;;;4974630;28;20484;-63
2024/01/16 11:18:33;;;;;;;31.00;13.97;;;5.20;93.00;;;;;;4997330;28;20486;-63
2024/01/16 11:21:02;;;;;;;25.47;12.10;;;5.20;92.70;;;;;;5014233;28;20496;-63
2024/01/16 11:23:29;;;;;;;24.17;12.13;;;5.40;92.90;;;;;;4989655;28;20485;-63
2024/01/16 11:25:56;;;;;;;27.33;13.70;;;5.60;92.40;;;;;;4997933;28;20481;-64
2024/01/16 11:28:30;;;;;;;23.23;13.30;;;5.70;92.60;;;;;;4957292;28;20483;-64
2024/01/16 11:30:59;;;;;;;23.53;12.00;;;5.60;91.10;;;;;;4983047;28;20491;-64
2024/01/16 11:33:44;;;;;;;20.83;13.17;;;5.70;91.60;;;;;;5004734;28;20512;-64
2024/01/16 11:36:48;;;;;;;24.00;13.80;;;5.70;91.30;;;;;;4987933;28;20567;-64
2024/01/16 11:39:18;;;;;;;28.97;13.97;;;5.70;90.90;;;;;;4982554;28;20479;-64
2024/01/16 11:41:53;;;;;;;22.13;12.40;;;5.60;90.70;;;;;;4960457;28;20476;-65
2024/01/16 11:44:43;;;;;;;27.30;11.97;;;5.40;90.90;;;;;;5003516;28;20518;-65
2024/01/16 11:47:17;;;;;;;24.20;12.90;;;5.40;91.00;;;;;;5012075;28;20488;-64
2024/01/16 11:49:45;;;;;;;40.77;14.63;;;5.30;90.80;;;;;;4994707;28;20550;-64
2024/01/16 11:52:12;;;;;;;24.57;13.40;;;5.30;91.10;;;;;;4990469;28;20930;-64
2024/01/16 11:54:40;;;;;;;29.77;12.27;;;5.40;91.10;;;;;;4984324;28;20969;-65
2024/01/16 11:57:36;;;;;;;23.63;11.43;;;5.40;90.70;;;;;;4993979;28;20481;-64
2024/01/16 12:00:12;;;;;;;24.77;13.37;;;5.60;91.00;;;;;;5012335;28;20523;-64
2024/01/16 12:02:50;;;;;;;22.40;11.27;;;5.50;90.10;;;;;;4992800;28;20504;-64
2024/01/16 12:05:17;;;;;;;25.70;13.40;;;5.50;90.80;;;;;;4979908;28;21253;-64
2024/01/16 12:07:46;;;;;;;20.13;12.60;;;5.40;90.50;;;;;;4993092;28;20527;-65
2024/01/16 12:10:14;;;;;;;28.90;13.80;;;4.90;90.00;;;;;;4993501;28;20480;-64
2024/01/16 12:12:41;;;;;;;27.47;11.37;;;4.80;90.20;;;;;;4992049;28;20470;-64
2024/01/16 12:15:14;;;;;;;18.27;10.70;;;4.50;90.40;;;;;;4982073;28;20519;-64
2024/01/16 12:17:53;;;;;;;34.83;13.00;;;4.30;90.90;;;;;;4981149;28;20485;-64
2024/01/16 12:20:21;;;;;;;23.07;12.43;;;;;;;;;;4973096;28;20476;-64
2024/01/16 12:22:54;;;;;;;23.63;11.87;;;4.40;91.60;;;;;;4980777;28;20494;-65
2024/01/16 12:25:22;;;;;;;22.77;13.50;;;4.70;91.20;;;;;;4986897;28;20563;-65
2024/01/16 12:27:56;;;;;;;20.47;11.63;;;4.90;90.80;;;;;;4977439;28;20479;-65
2024/01/16 12:30:24;;;;;;;19.93;11.13;;;5.00;91.00;;;;;;5011801;28;20828;-65
2024/01/16 12:32:54;;;;;;;15.77;10.40;;;5.00;90.10;;;;;;4981943;28;20477;-64
2024/01/16 12:35:21;;;;;;;27.10;12.87;;;5.00;90.80;;;;;;4970519;28;20549;-65
2024/01/16 12:38:00;;;;;;;26.97;13.27;;;5.10;90.40;;;;;;4962559;28;21279;-65
2024/01/16 12:40:27;;;;;;;28.67;12.70;;;5.10;90.10;;;;;;4965342;28;20478;-64
2024/01/16 12:42:54;;;;;;;21.43;10.57;;;5.10;90.40;;;;;;4980061;28;20481;-64
2024/01/16 12:45:22;;;;;;;21.60;13.10;;;5.20;90.70;;;;;;4996364;28;20594;-64